createdAt,value
2023-04-21T00:00:25.144Z,10.87
2023-04-21T00:02:54.411Z,10.81
2023-04-21T00:05:21.591Z,10.66
2023-04-21T00:07:52.556Z,10.61
2023-04-21T00:10:19.424Z,10.81
2023-04-21T00:12:46.223Z,10.80
2023-04-21T00:15:16.088Z,10.41
2023-04-21T00:17:45.436Z,10.26
2023-04-21T00:20:15.397Z,10.41
2023-04-21T00:22:42.188Z,10.31
2023-04-21T00:25:09.560Z,10.44
2023-04-21T00:27:36.495Z,10.35
2023-04-21T00:30:03.698Z,10.31
2023-04-21T00:32:30.982Z,10.09
2023-04-21T00:34:57.975Z,10.13
2023-04-21T00:37:25.021Z,10.27
2023-04-21T00:39:54.106Z,10.38
2023-04-21T00:42:23.462Z,10.19
2023-04-21T00:44:51.437Z,10.10
2023-04-21T00:47:19.723Z,10.21
2023-04-21T00:49:47.335Z,10.04
2023-04-21T00:52:17.569Z,10.07
2023-04-21T00:54:44.808Z,10.07
2023-04-21T00:57:12.549Z,10.07
2023-04-21T00:59:41.978Z,9.99
2023-04-21T01:02:11.390Z,9.96
2023-04-21T01:04:40.249Z,10.06
2023-04-21T01:07:07.931Z,10.15
2023-04-21T01:09:37.891Z,10.18
2023-04-21T01:12:11.183Z,10.20
2023-04-21T01:14:40.878Z,9.95
2023-04-21T01:17:10.591Z,10.12
2023-04-21T01:19:45.313Z,10.08
2023-04-21T01:22:15.201Z,10.00
2023-04-21T01:24:45.385Z,10.20
2023-04-21T01:27:22.479Z,10.07
2023-04-21T01:29:53.367Z,9.95
2023-04-21T01:32:24.399Z,10.08
2023-04-21T01:34:52.498Z,10.21
2023-04-21T01:37:26.424Z,10.18
2023-04-21T01:39:59.320Z,9.99
2023-04-21T01:42:28.227Z,10.07
2023-04-21T01:44:56.160Z,10.02
2023-04-21T01:47:26.456Z,9.83
2023-04-21T01:49:56.390Z,9.98
2023-04-21T01:52:25.933Z,9.77
2023-04-21T01:54:52.760Z,9.84
2023-04-21T01:57:19.863Z,9.78
2023-04-21T01:59:49.795Z,9.82
2023-04-21T02:02:16.849Z,9.85
2023-04-21T02:04:46.448Z,9.85
2023-04-21T02:07:17.981Z,9.81
2023-04-21T02:09:46.965Z,9.77
2023-04-21T02:12:16.517Z,9.71
2023-04-21T02:14:43.447Z,9.63
2023-04-21T02:17:15.158Z,9.69
2023-04-21T02:19:42.029Z,9.80
2023-04-21T02:22:12.912Z,9.78
2023-04-21T02:24:43.130Z,9.74
2023-04-21T02:27:10.046Z,9.68
2023-04-21T02:29:36.901Z,9.79
2023-04-21T02:34:37.462Z,9.87
2023-04-21T02:37:04.858Z,9.80
2023-04-21T02:39:31.841Z,9.80
2023-04-21T02:41:58.886Z,9.72
2023-04-21T02:44:26.221Z,9.67
2023-04-21T02:46:53.131Z,9.84
2023-04-21T02:49:20.483Z,9.88
2023-04-21T02:51:47.998Z,9.75
2023-04-21T02:54:17.150Z,9.61
2023-04-21T02:56:44.077Z,9.69
2023-04-21T02:59:11.856Z,9.56
2023-04-21T03:01:41.059Z,9.62
2023-04-21T03:04:11.144Z,9.46
2023-04-21T03:06:41.139Z,9.50
2023-04-21T03:09:07.968Z,9.22
2023-04-21T03:11:37.098Z,9.41
2023-04-21T03:14:06.271Z,9.44
2023-04-21T03:16:33.205Z,9.34
2023-04-21T03:19:00.283Z,9.05
2023-04-21T03:21:27.202Z,9.26
2023-04-21T03:23:54.126Z,9.27
2023-04-21T03:26:21.287Z,9.34
2023-04-21T03:28:48.173Z,9.42
2023-04-21T03:31:15.211Z,9.53
2023-04-21T03:33:42.086Z,9.60
2023-04-21T03:36:12.170Z,9.69
2023-04-21T03:38:41.565Z,9.77
2023-04-21T03:41:10.964Z,9.77
2023-04-21T03:43:40.061Z,9.81
2023-04-21T03:46:06.996Z,9.62
2023-04-21T03:48:36.114Z,9.79
2023-04-21T03:51:07.692Z,9.65
2023-04-21T03:53:34.650Z,9.75
2023-04-21T03:56:04.099Z,9.62
2023-04-21T03:58:31.019Z,9.81
2023-04-21T04:01:02.547Z,9.75
2023-04-21T04:03:29.621Z,9.76
2023-04-21T04:05:56.646Z,9.68
2023-04-21T04:08:30.769Z,9.66
2023-04-21T04:10:57.815Z,9.61
2023-04-21T04:13:26.406Z,9.60
2023-04-21T04:15:53.835Z,9.65
2023-04-21T04:18:23.397Z,9.78
2023-04-21T04:20:52.618Z,9.73
2023-04-21T04:23:19.662Z,9.64
2023-04-21T04:25:47.913Z,9.77
2023-04-21T04:28:15.654Z,9.84
2023-04-21T04:30:43.828Z,9.77
2023-04-21T04:33:11.954Z,9.98
2023-04-21T04:35:39.137Z,9.85
2023-04-21T04:38:07.704Z,9.98
2023-04-21T04:40:34.737Z,10.04
2023-04-21T04:43:04.408Z,10.06
2023-04-21T04:45:33.100Z,10.15
2023-04-21T04:48:00.406Z,10.00
2023-04-21T04:50:29.970Z,10.20
2023-04-21T04:53:00.391Z,10.26
2023-04-21T04:55:29.583Z,10.19
2023-04-21T04:57:56.607Z,10.25
2023-04-21T05:00:23.863Z,10.29
2023-04-21T05:02:53.410Z,10.32
2023-04-21T05:05:24.837Z,10.36
2023-04-21T05:07:51.793Z,10.43
2023-04-21T05:10:18.908Z,10.71
2023-04-21T05:12:45.936Z,10.83
2023-04-21T05:15:13.090Z,10.84
2023-04-21T05:17:40.083Z,10.81
2023-04-21T05:20:08.963Z,10.91
2023-04-21T05:22:40.374Z,10.99
2023-04-21T05:25:07.976Z,11.09
2023-04-21T05:28:11.137Z,11.32
2023-04-21T05:30:51.937Z,11.56
2023-04-21T05:33:25.908Z,11.63
2023-04-21T05:35:59.014Z,11.73
2023-04-21T05:38:33.585Z,11.70
2023-04-21T05:41:07.050Z,11.86
2023-04-21T05:43:44.520Z,11.86
2023-04-21T05:46:15.052Z,12.06
2023-04-21T05:48:51.894Z,12.11
2023-04-21T05:51:24.050Z,12.22
2023-04-21T05:54:00.560Z,12.08
2023-04-21T05:56:30.900Z,12.21
2023-04-21T05:59:13.333Z,12.27
2023-04-21T06:01:41.394Z,12.25
2023-04-21T06:04:11.550Z,12.41
2023-04-21T06:06:44.949Z,12.52
2023-04-21T06:09:16.031Z,12.46
2023-04-21T06:11:45.852Z,12.52
2023-04-21T06:14:13.645Z,12.57
2023-04-21T06:16:44.650Z,12.87
2023-04-21T06:19:23.430Z,12.96
2023-04-21T06:22:17.519Z,13.06
2023-04-21T06:24:52.159Z,13.31
2023-04-21T06:27:23.556Z,13.57
2023-04-21T06:29:57.949Z,13.47
2023-04-21T06:32:28.429Z,13.50
2023-04-21T06:35:01.782Z,13.30
2023-04-21T06:37:44.250Z,13.13
2023-04-21T06:40:20.686Z,13.59
2023-04-21T06:42:49.071Z,13.86
2023-04-21T06:45:21.574Z,13.50
2023-04-21T06:48:02.531Z,13.39
2023-04-21T06:50:38.745Z,13.47
2023-04-21T06:53:07.701Z,13.76
2023-04-21T06:55:41.593Z,14.03
2023-04-21T06:58:13.497Z,14.36
2023-04-21T07:00:43.614Z,13.94
2023-04-21T07:03:22.346Z,13.88
2023-04-21T07:05:56.610Z,14.35
2023-04-21T07:08:42.118Z,14.36
2023-04-21T07:11:18.604Z,14.14
2023-04-21T07:13:53.564Z,14.42
2023-04-21T07:16:21.516Z,14.60
2023-04-21T07:18:56.334Z,14.63
2023-04-21T07:21:39.557Z,15.04
2023-04-21T07:24:35.682Z,15.25
2023-04-21T07:27:06.095Z,15.28
2023-04-21T07:29:40.342Z,15.57
2023-04-21T07:32:13.897Z,15.73
2023-04-21T07:34:43.143Z,16.03
2023-04-21T07:37:20.457Z,16.33
2023-04-21T07:39:54.135Z,16.46
2023-04-21T07:42:27.874Z,16.60
2023-04-21T07:45:14.287Z,16.38
2023-04-21T07:47:49.819Z,16.26
2023-04-21T07:50:33.099Z,16.31
2023-04-21T07:53:25.392Z,16.68
2023-04-21T07:55:55.785Z,16.79
2023-04-21T07:58:31.608Z,16.98
2023-04-21T08:01:04.533Z,17.23
2023-04-21T08:03:42.393Z,17.40
2023-04-21T08:06:21.490Z,17.64
2023-04-21T08:08:53.576Z,17.94
2023-04-21T08:11:22.938Z,17.94
2023-04-21T08:13:56.189Z,17.93
2023-04-21T08:16:24.526Z,17.91
2023-04-21T08:18:58.231Z,18.14
2023-04-21T08:21:32.271Z,18.35
2023-04-21T08:24:04.929Z,18.61
2023-04-21T08:26:47.814Z,18.82
2023-04-21T08:29:18.765Z,19.24
2023-04-21T08:31:54.864Z,19.40
2023-04-21T08:34:25.713Z,19.19
2023-04-21T08:37:04.847Z,19.53
2023-04-21T08:42:43.576Z,19.98
2023-04-21T08:45:20.055Z,20.10
2023-04-21T08:48:08.760Z,20.37
2023-04-21T08:51:01.041Z,20.52
2023-04-21T08:53:31.239Z,20.79
2023-04-21T08:56:11.169Z,21.02
2023-04-21T08:58:47.020Z,21.12
2023-04-21T09:01:32.552Z,21.39
2023-04-21T09:04:25.027Z,20.96
2023-04-21T09:06:59.226Z,21.30
2023-04-21T09:09:26.377Z,21.69
2023-04-21T09:11:59.904Z,21.95
2023-04-21T09:14:33.102Z,22.36
2023-04-21T09:17:04.655Z,22.39
2023-04-21T09:19:34.783Z,22.41
2023-04-21T09:22:02.281Z,22.68
2023-04-21T09:24:31.617Z,22.53
2023-04-21T09:27:06.539Z,22.52
2023-04-21T09:29:33.525Z,22.91
2023-04-21T09:32:02.932Z,23.24
2023-04-21T09:34:30.287Z,23.59
2023-04-21T09:37:02.399Z,23.60
2023-04-21T09:39:43.285Z,23.77
2023-04-21T09:42:18.618Z,23.95
2023-04-21T09:44:55.243Z,24.16
2023-04-21T09:47:33.084Z,24.70
2023-04-21T09:50:03.056Z,24.84
2023-04-21T09:52:30.843Z,24.64
2023-04-21T09:55:04.300Z,24.77
2023-04-21T09:57:34.848Z,24.68
2023-04-21T10:00:11.985Z,25.03
2023-04-21T10:02:45.401Z,24.89
2023-04-21T10:05:14.910Z,25.13
2023-04-21T10:07:41.923Z,24.87
2023-04-21T10:10:31.916Z,25.10
2023-04-21T10:13:01.842Z,25.05
2023-04-21T10:15:40.442Z,24.86
2023-04-21T10:18:21.962Z,24.62
2023-04-21T10:20:56.371Z,25.10
2023-04-21T10:23:52.089Z,25.64
2023-04-21T10:26:24.685Z,25.29
2023-04-21T10:29:03.656Z,25.72
2023-04-21T10:31:57.822Z,25.60
2023-04-21T10:34:36.645Z,25.50
2023-04-21T10:37:08.561Z,25.41
2023-04-21T10:39:55.648Z,25.91
2023-04-21T10:42:24.702Z,25.48
2023-04-21T10:44:57.646Z,25.68
2023-04-21T10:47:29.428Z,25.26
2023-04-21T10:49:58.906Z,25.66
2023-04-21T10:52:35.949Z,25.36
2023-04-21T10:55:06.662Z,25.50
2023-04-21T10:57:35.774Z,25.32
2023-04-21T11:00:09.095Z,24.98
2023-04-21T11:02:40.475Z,25.13
2023-04-21T11:05:12.722Z,25.53
2023-04-21T11:07:39.688Z,25.81
2023-04-21T11:10:14.859Z,25.36
2023-04-21T11:12:41.857Z,25.37
2023-04-21T11:15:11.655Z,25.57
2023-04-21T11:17:39.918Z,25.09
2023-04-21T11:20:09.812Z,25.26
2023-04-21T11:22:39.929Z,24.95
2023-04-21T11:25:19.142Z,25.36
2023-04-21T11:28:00.132Z,25.29
2023-04-21T11:30:34.568Z,25.26
2023-04-21T11:33:01.856Z,25.51
2023-04-21T11:35:28.831Z,24.52
2023-04-21T11:37:58.695Z,24.68
2023-04-21T11:40:25.617Z,25.01
2023-04-21T11:42:57.495Z,25.09
2023-04-21T11:45:24.358Z,25.06
2023-04-21T11:47:51.322Z,25.06
2023-04-21T11:50:38.994Z,24.65
2023-04-21T11:53:06.744Z,24.58
2023-04-21T11:55:39.182Z,24.38
2023-04-21T11:58:06.175Z,24.50
2023-04-21T12:00:33.088Z,25.18
2023-04-21T12:03:04.683Z,25.30
2023-04-21T12:05:38.305Z,24.84
2023-04-21T12:08:08.028Z,25.00
2023-04-21T12:10:35.043Z,25.24
2023-04-21T12:13:01.981Z,25.19
2023-04-21T12:15:30.793Z,25.59
2023-04-21T12:17:57.759Z,25.24
2023-04-21T12:20:28.104Z,24.99
2023-04-21T12:22:56.504Z,25.13
2023-04-21T12:25:24.610Z,25.37
2023-04-21T12:27:52.884Z,25.05
2023-04-21T12:30:21.203Z,24.46
2023-04-21T12:32:48.492Z,24.79
2023-04-21T12:35:16.046Z,25.10
2023-04-21T12:37:43.129Z,25.02
2023-04-21T12:40:15.719Z,24.84
2023-04-21T12:42:44.896Z,24.95
2023-04-21T12:45:12.075Z,24.69
2023-04-21T12:47:42.980Z,24.47
2023-04-21T12:50:12.576Z,24.44
2023-04-21T12:52:39.519Z,24.29
2023-04-21T12:55:06.634Z,24.12
2023-04-21T12:57:33.671Z,24.35
2023-04-21T13:00:01.027Z,24.24
2023-04-21T13:02:37.029Z,24.46
2023-04-21T13:05:04.984Z,23.88
2023-04-21T13:07:33.866Z,24.24
2023-04-21T13:10:06.634Z,24.22
2023-04-21T13:12:33.858Z,24.38
2023-04-21T13:15:03.334Z,24.07
2023-04-21T13:17:33.036Z,24.45
2023-04-21T13:20:00.137Z,24.26
2023-04-21T13:22:27.040Z,24.36
2023-04-21T13:24:53.941Z,24.75
2023-04-21T13:27:20.757Z,24.63
2023-04-21T13:29:49.167Z,24.77
2023-04-21T13:32:16.224Z,24.76
2023-04-21T13:34:45.228Z,24.70
2023-04-21T13:37:16.019Z,24.27
2023-04-21T13:39:46.867Z,23.55
2023-04-21T13:42:16.433Z,23.87
2023-04-21T13:44:43.327Z,24.56
2023-04-21T13:47:13.494Z,24.77
2023-04-21T13:49:40.546Z,24.25
2023-04-21T13:52:07.539Z,24.05
2023-04-21T13:54:38.982Z,24.21
2023-04-21T13:57:06.019Z,24.25
2023-04-21T13:59:33.287Z,24.16
2023-04-21T14:02:00.539Z,24.65
2023-04-21T14:04:27.648Z,24.20
2023-04-21T14:06:55.484Z,23.45
2023-04-21T14:09:22.474Z,23.22
2023-04-21T14:11:49.426Z,23.38
2023-04-21T14:14:31.479Z,23.69
2023-04-21T14:17:08.216Z,23.88
2023-04-21T14:19:39.906Z,23.35
2023-04-21T14:22:06.997Z,23.22
2023-04-21T14:24:38.496Z,23.42
2023-04-21T14:27:07.653Z,23.42
2023-04-21T14:29:37.083Z,23.53
2023-04-21T14:32:04.056Z,23.60
2023-04-21T14:34:35.891Z,23.42
2023-04-21T14:37:07.337Z,23.32
2023-04-21T14:39:34.416Z,23.19
2023-04-21T14:42:04.076Z,23.30
2023-04-21T14:44:31.210Z,23.11
2023-04-21T14:47:09.151Z,23.25
2023-04-21T14:49:41.679Z,23.32
2023-04-21T14:52:08.707Z,23.59
2023-04-21T14:54:35.672Z,23.59
2023-04-21T14:57:14.789Z,23.61
2023-04-21T14:59:46.859Z,23.69
2023-04-21T15:02:14.351Z,23.29
2023-04-21T15:04:45.010Z,23.33
2023-04-21T15:07:12.329Z,23.12
2023-04-21T15:09:39.294Z,23.07
2023-04-21T15:12:06.852Z,22.55
2023-04-21T15:14:33.890Z,22.54
2023-04-21T15:17:03.128Z,22.76
2023-04-21T15:19:30.227Z,22.89
2023-04-21T15:22:00.714Z,22.83
2023-04-21T15:24:30.273Z,22.86
2023-04-21T15:26:57.229Z,22.70
2023-04-21T15:29:26.865Z,22.93
2023-04-21T15:31:53.703Z,22.89
2023-04-21T15:34:20.596Z,22.90
2023-04-21T15:36:50.460Z,22.68
2023-04-21T15:39:19.721Z,22.91
2023-04-21T15:41:49.792Z,22.91
2023-04-21T15:44:16.660Z,22.62
2023-04-21T15:46:43.688Z,22.32
2023-04-21T15:49:12.894Z,22.04
2023-04-21T15:51:42.454Z,21.97
2023-04-21T15:54:12.084Z,22.13
2023-04-21T15:56:38.979Z,22.44
2023-04-21T15:59:07.425Z,22.65
2023-04-21T16:01:40.512Z,22.60
2023-04-21T16:04:07.621Z,22.76
2023-04-21T16:06:36.116Z,22.37
2023-04-21T16:09:03.427Z,22.16
2023-04-21T16:11:30.517Z,22.01
2023-04-21T16:13:59.973Z,22.10
2023-04-21T16:16:26.887Z,21.94
2023-04-21T16:18:54.030Z,21.80
2023-04-21T16:21:23.414Z,22.03
2023-04-21T16:23:50.365Z,22.26
2023-04-21T16:26:17.227Z,22.21
2023-04-21T16:28:44.167Z,21.98
2023-04-21T16:31:14.125Z,21.81
2023-04-21T16:33:43.301Z,21.62
2023-04-21T16:36:10.253Z,21.76
2023-04-21T16:38:37.251Z,21.49
2023-04-21T16:41:04.229Z,21.65
2023-04-21T16:43:33.518Z,21.69
2023-04-21T16:46:00.503Z,21.81
2023-04-21T16:48:30.900Z,22.00
2023-04-21T16:50:58.356Z,22.02
2023-04-21T16:53:28.124Z,21.85
2023-04-21T16:55:55.016Z,21.76
2023-04-21T16:58:26.116Z,21.89
2023-04-21T17:00:53.331Z,21.56
2023-04-21T17:03:23.310Z,21.53
2023-04-21T17:05:50.771Z,21.47
2023-04-21T17:08:17.713Z,21.39
2023-04-21T17:10:46.873Z,21.39
2023-04-21T17:13:13.769Z,21.36
2023-04-21T17:15:43.195Z,21.35
2023-04-21T17:18:10.657Z,21.43
2023-04-21T17:20:38.027Z,21.42
2023-04-21T17:23:04.890Z,21.37
2023-04-21T17:25:34.410Z,21.56
2023-04-21T17:28:01.845Z,21.45
2023-04-21T17:30:28.776Z,21.12
2023-04-21T17:33:08.360Z,21.09
2023-04-21T17:35:55.785Z,20.94
2023-04-21T17:38:29.662Z,20.99
2023-04-21T17:40:56.750Z,20.82
2023-04-21T17:43:24.280Z,20.86
2023-04-21T17:45:52.360Z,20.90
2023-04-21T17:48:19.865Z,20.91
2023-04-21T17:50:47.077Z,20.96
2023-04-21T17:53:13.944Z,20.66
2023-04-21T17:55:40.994Z,20.75
2023-04-21T17:58:12.512Z,20.70
2023-04-21T18:00:42.072Z,20.84
2023-04-21T18:03:09.110Z,20.71
2023-04-21T18:05:38.264Z,20.61
2023-04-21T18:08:05.504Z,20.82
2023-04-21T18:10:32.396Z,20.93
2023-04-21T18:12:59.250Z,20.79
2023-04-21T18:15:29.595Z,20.74
2023-04-21T18:20:23.381Z,20.41
2023-04-21T18:22:54.291Z,20.26
2023-04-21T18:25:40.699Z,20.35
2023-04-21T18:28:14.427Z,20.15
2023-04-21T18:30:44.223Z,20.12
2023-04-21T18:33:11.521Z,20.24
2023-04-21T18:35:43.450Z,20.18
2023-04-21T18:38:13.512Z,20.19
2023-04-21T18:40:41.195Z,20.24
2023-04-21T18:43:11.867Z,20.41
2023-04-21T18:45:38.838Z,20.56
2023-04-21T18:48:05.853Z,20.43
2023-04-21T18:50:35.878Z,20.27
2023-04-21T18:53:07.218Z,20.14
2023-04-21T18:55:36.059Z,19.89
2023-04-21T18:58:03.337Z,19.64
2023-04-21T19:00:31.972Z,19.54
2023-04-21T19:03:02.802Z,19.11
2023-04-21T19:05:31.709Z,19.12
2023-04-21T19:08:01.441Z,19.16
2023-04-21T19:10:28.897Z,18.95
2023-04-21T19:12:55.757Z,18.84
2023-04-21T19:15:23.038Z,18.89
2023-04-21T19:17:50.005Z,18.88
2023-04-21T19:20:17.942Z,18.84
2023-04-21T19:22:44.901Z,18.76
2023-04-21T19:25:12.030Z,18.63
2023-04-21T19:27:42.976Z,18.58
2023-04-21T19:30:10.466Z,18.19
2023-04-21T19:32:38.445Z,18.18
2023-04-21T19:35:08.287Z,18.14
2023-04-21T19:37:37.447Z,17.96
2023-04-21T19:40:06.208Z,17.98
2023-04-21T19:42:33.021Z,17.76
2023-04-21T19:44:59.974Z,17.87
2023-04-21T19:47:29.402Z,17.73
2023-04-21T19:49:58.835Z,17.81
2023-04-21T19:52:25.782Z,17.90
2023-04-21T19:54:52.618Z,17.80
2023-04-21T19:57:19.464Z,17.66
2023-04-21T19:59:46.447Z,17.52
2023-04-21T20:02:16.569Z,17.41
2023-04-21T20:04:43.686Z,17.56
2023-04-21T20:07:14.280Z,17.50
2023-04-21T20:09:43.306Z,17.47
2023-04-21T20:12:12.394Z,17.35
2023-04-21T20:14:39.324Z,17.42
2023-04-21T20:17:06.199Z,17.48
2023-04-21T20:19:33.858Z,17.30
2023-04-21T20:22:03.891Z,17.06
2023-04-21T20:24:30.881Z,16.93
2023-04-21T20:26:57.862Z,16.98
2023-04-21T20:29:24.750Z,17.19
2023-04-21T20:31:53.847Z,16.88
2023-04-21T20:34:20.910Z,16.86
2023-04-21T20:36:51.578Z,16.84
2023-04-21T20:39:18.484Z,16.85
2023-04-21T20:41:46.165Z,17.02
2023-04-21T20:44:16.887Z,16.73
2023-04-21T20:46:46.443Z,16.63
2023-04-21T20:49:13.701Z,16.55
2023-04-21T20:51:44.135Z,16.74
2023-04-21T20:54:13.992Z,16.77
2023-04-21T20:56:44.403Z,16.88
2023-04-21T20:59:11.218Z,16.79
2023-04-21T21:01:41.214Z,16.67
2023-04-21T21:04:08.368Z,16.47
2023-04-21T21:06:37.824Z,16.41
2023-04-21T21:09:07.725Z,16.53
2023-04-21T21:11:34.689Z,16.42
2023-04-21T21:14:04.002Z,16.32
2023-04-21T21:16:33.385Z,16.05
2023-04-21T21:19:00.235Z,16.26
2023-04-21T21:21:27.195Z,16.06
2023-04-21T21:23:56.528Z,16.09
2023-04-21T21:26:23.465Z,16.15
2023-04-21T21:28:50.547Z,16.18
2023-04-21T21:31:17.570Z,15.98
2023-04-21T21:33:44.469Z,15.77
2023-04-21T21:36:14.344Z,15.63
2023-04-21T21:38:41.229Z,15.69
2023-04-21T21:41:12.208Z,15.62
2023-04-21T21:43:39.161Z,15.66
2023-04-21T21:46:09.304Z,15.85
2023-04-21T21:48:36.237Z,15.81
2023-04-21T21:51:04.322Z,15.82
2023-04-21T21:53:32.420Z,15.64
2023-04-21T21:56:00.228Z,15.66
2023-04-21T21:58:27.242Z,15.63
2023-04-21T22:00:54.862Z,15.51
2023-04-21T22:03:22.225Z,15.63
2023-04-21T22:05:51.598Z,15.61
2023-04-21T22:08:18.486Z,15.57
2023-04-21T22:10:45.670Z,15.72
2023-04-21T22:13:15.230Z,15.62
2023-04-21T22:15:45.174Z,15.41
2023-04-21T22:18:12.100Z,15.39
2023-04-21T22:20:38.975Z,15.28
2023-04-21T22:23:08.414Z,15.16
2023-04-21T22:25:38.235Z,15.28
2023-04-21T22:28:05.085Z,15.40
2023-04-21T22:30:32.390Z,15.31
2023-04-21T22:32:59.409Z,15.13
2023-04-21T22:35:26.281Z,15.09
2023-04-21T22:37:53.213Z,15.13
2023-04-21T22:40:20.169Z,15.05
2023-04-21T22:42:47.085Z,15.11
2023-04-21T22:45:14.036Z,15.02
2023-04-21T22:47:41.037Z,15.13
2023-04-21T22:50:09.456Z,15.28
2023-04-21T22:52:38.427Z,15.23
2023-04-21T22:55:05.918Z,15.08
2023-04-21T22:57:37.954Z,14.79
2023-04-21T23:00:10.076Z,14.95
2023-04-21T23:02:37.361Z,14.97
2023-04-21T23:05:06.998Z,14.93
2023-04-21T23:07:36.766Z,14.88
2023-04-21T23:10:04.083Z,14.80
2023-04-21T23:12:33.505Z,14.83
2023-04-21T23:15:02.428Z,14.84
2023-04-21T23:17:29.344Z,14.58
2023-04-21T23:19:56.503Z,14.51
2023-04-21T23:22:25.949Z,14.68
2023-04-21T23:24:53.033Z,14.53
2023-04-21T23:27:19.984Z,14.51
2023-04-21T23:29:46.866Z,14.57
2023-04-21T23:32:13.794Z,14.69
2023-04-21T23:34:40.722Z,14.71
2023-04-21T23:37:09.645Z,14.57
2023-04-21T23:39:41.565Z,14.68
2023-04-21T23:42:11.218Z,14.68
2023-04-21T23:44:42.808Z,14.91
2023-04-21T23:47:09.662Z,14.60
2023-04-21T23:49:36.687Z,14.58
2023-04-21T23:52:03.766Z,14.63
2023-04-21T23:54:30.703Z,14.38
2023-04-21T23:56:58.330Z,14.47
2023-04-21T23:59:25.223Z,14.42
